sensor_id;sensor_type;location;lat;lon;timestamp;P1;durP1;ratioP1;P2;durP2;ratioP2
42144;SDS011;27813;43.516;11.890;2023-06-22T04:34:31;6.10;;;4.50;;
42144;SDS011;27813;43.516;11.890;2023-06-22T04:39:09;4.97;;;3.53;;
42144;SDS011;27813;43.516;11.890;2023-06-22T04:43:20;3.58;;;3.28;;
42144;SDS011;27813;43.516;11.890;2023-06-22T04:48:08;6.22;;;4.03;;
42144;SDS011;27813;43.516;11.890;2023-06-22T04:52:34;4.50;;;3.90;;
42144;SDS011;27813;43.516;11.890;2023-06-22T04:56:39;4.90;;;4.28;;
42144;SDS011;27813;43.516;11.890;2023-06-22T05:00:43;7.10;;;3.80;;
42144;SDS011;27813;43.516;11.890;2023-06-22T05:04:47;5.68;;;4.07;;
42144;SDS011;27813;43.516;11.890;2023-06-22T05:08:55;6.95;;;3.92;;
42144;SDS011;27813;43.516;11.890;2023-06-22T05:13:03;4.07;;;3.67;;
42144;SDS011;27813;43.516;11.890;2023-06-22T05:17:07;6.68;;;3.80;;
42144;SDS011;27813;43.516;11.890;2023-06-22T05:21:18;6.78;;;4.00;;
42144;SDS011;27813;43.516;11.890;2023-06-22T05:25:26;4.38;;;3.20;;
42144;SDS011;27813;43.516;11.890;2023-06-22T05:29:33;5.53;;;3.92;;
42144;SDS011;27813;43.516;11.890;2023-06-22T05:33:37;5.88;;;3.50;;
42144;SDS011;27813;43.516;11.890;2023-06-22T05:37:41;5.88;;;4.15;;
42144;SDS011;27813;43.516;11.890;2023-06-22T05:41:46;5.32;;;3.92;;
42144;SDS011;27813;43.516;11.890;2023-06-22T05:45:50;5.38;;;3.15;;
42144;SDS011;27813;43.516;11.890;2023-06-22T05:49:54;5.90;;;3.30;;
42144;SDS011;27813;43.516;11.890;2023-06-22T05:53:58;4.95;;;3.20;;
42144;SDS011;27813;43.516;11.890;2023-06-22T05:58:02;4.07;;;3.30;;
42144;SDS011;27813;43.516;11.890;2023-06-22T06:02:06;5.50;;;3.50;;
42144;SDS011;27813;43.516;11.890;2023-06-22T06:06:11;5.43;;;3.35;;
42144;SDS011;27813;43.516;11.890;2023-06-22T06:10:15;4.30;;;3.17;;
42144;SDS011;27813;43.516;11.890;2023-06-22T06:14:20;5.80;;;3.28;;
42144;SDS011;27813;43.516;11.890;2023-06-22T06:18:24;6.18;;;3.45;;
42144;SDS011;27813;43.516;11.890;2023-06-22T06:22:28;5.30;;;2.90;;
42144;SDS011;27813;43.516;11.890;2023-06-22T06:26:32;6.85;;;3.30;;
42144;SDS011;27813;43.516;11.890;2023-06-22T06:30:38;8.32;;;3.28;;
42144;SDS011;27813;43.516;11.890;2023-06-22T06:34:44;5.00;;;3.20;;
42144;SDS011;27813;43.516;11.890;2023-06-22T06:38:48;6.55;;;3.70;;
42144;SDS011;27813;43.516;11.890;2023-06-22T06:42:52;5.43;;;2.75;;
42144;SDS011;27813;43.516;11.890;2023-06-22T06:46:57;4.40;;;3.25;;
42144;SDS011;27813;43.516;11.890;2023-06-22T06:51:01;4.13;;;3.05;;
42144;SDS011;27813;43.516;11.890;2023-06-22T06:55:07;5.95;;;3.40;;
42144;SDS011;27813;43.516;11.890;2023-06-22T06:59:15;4.82;;;2.92;;
42144;SDS011;27813;43.516;11.890;2023-06-22T07:03:19;9.65;;;3.53;;
42144;SDS011;27813;43.516;11.890;2023-06-22T07:07:23;6.18;;;4.18;;
42144;SDS011;27813;43.516;11.890;2023-06-22T07:11:27;4.72;;;3.08;;
42144;SDS011;27813;43.516;11.890;2023-06-22T07:15:31;8.63;;;3.30;;
42144;SDS011;27813;43.516;11.890;2023-06-22T07:19:35;4.93;;;3.50;;
42144;SDS011;27813;43.516;11.890;2023-06-22T07:23:39;5.80;;;3.30;;
42144;SDS011;27813;43.516;11.890;2023-06-22T07:27:44;4.20;;;3.33;;
42144;SDS011;27813;43.516;11.890;2023-06-22T07:32:02;4.97;;;3.20;;
42144;SDS011;27813;43.516;11.890;2023-06-22T07:36:08;5.28;;;3.00;;
42144;SDS011;27813;43.516;11.890;2023-06-22T07:40:12;4.65;;;3.90;;
42144;SDS011;27813;43.516;11.890;2023-06-22T07:44:16;5.70;;;3.50;;
42144;SDS011;27813;43.516;11.890;2023-06-22T07:48:21;5.05;;;3.15;;
42144;SDS011;27813;43.516;11.890;2023-06-22T07:52:25;4.53;;;2.95;;
42144;SDS011;27813;43.516;11.890;2023-06-22T07:56:29;4.85;;;3.42;;
42144;SDS011;27813;43.516;11.890;2023-06-22T08:00:33;6.00;;;3.00;;
42144;SDS011;27813;43.516;11.890;2023-06-22T08:04:37;6.05;;;3.45;;
42144;SDS011;27813;43.516;11.890;2023-06-22T08:08:42;4.95;;;3.30;;
42144;SDS011;27813;43.516;11.890;2023-06-22T08:12:46;5.57;;;3.80;;
42144;SDS011;27813;43.516;11.890;2023-06-22T08:16:50;4.80;;;2.83;;
42144;SDS011;27813;43.516;11.890;2023-06-22T08:20:54;5.53;;;3.42;;
42144;SDS011;27813;43.516;11.890;2023-06-22T08:24:58;5.32;;;3.42;;
42144;SDS011;27813;43.516;11.890;2023-06-22T08:29:02;7.25;;;3.45;;
42144;SDS011;27813;43.516;11.890;2023-06-22T08:33:06;5.20;;;3.65;;
42144;SDS011;27813;43.516;11.890;2023-06-22T08:37:11;3.55;;;3.25;;
42144;SDS011;27813;43.516;11.890;2023-06-22T08:41:15;4.47;;;3.38;;
42144;SDS011;27813;43.516;11.890;2023-06-22T08:45:19;5.63;;;3.10;;
42144;SDS011;27813;43.516;11.890;2023-06-22T08:49:23;6.35;;;3.30;;
42144;SDS011;27813;43.516;11.890;2023-06-22T08:53:27;6.30;;;3.00;;
42144;SDS011;27813;43.516;11.890;2023-06-22T08:57:31;6.57;;;3.40;;
42144;SDS011;27813;43.516;11.890;2023-06-22T09:01:35;5.72;;;3.25;;
42144;SDS011;27813;43.516;11.890;2023-06-22T09:05:39;3.80;;;3.03;;
42144;SDS011;27813;43.516;11.890;2023-06-22T09:09:43;4.50;;;3.42;;
42144;SDS011;27813;43.516;11.890;2023-06-22T09:13:47;6.40;;;3.10;;
42144;SDS011;27813;43.516;11.890;2023-06-22T09:17:51;5.10;;;3.40;;
42144;SDS011;27813;43.516;11.890;2023-06-22T09:21:57;7.25;;;3.72;;
42144;SDS011;27813;43.516;11.890;2023-06-22T09:26:01;7.18;;;3.72;;
42144;SDS011;27813;43.516;11.890;2023-06-22T09:30:06;4.55;;;3.58;;
42144;SDS011;27813;43.516;11.890;2023-06-22T09:34:21;5.35;;;3.30;;
42144;SDS011;27813;43.516;11.890;2023-06-22T09:38:47;3.72;;;3.13;;
42144;SDS011;27813;43.516;11.890;2023-06-22T09:42:55;6.32;;;2.85;;
42144;SDS011;27813;43.516;11.890;2023-06-22T09:47:56;3.92;;;2.78;;
42144;SDS011;27813;43.516;11.890;2023-06-22T09:52:00;4.78;;;2.95;;
42144;SDS011;27813;43.516;11.890;2023-06-22T09:56:04;5.65;;;2.65;;
42144;SDS011;27813;43.516;11.890;2023-06-22T10:00:10;4.80;;;2.90;;
42144;SDS011;27813;43.516;11.890;2023-06-22T10:04:16;6.15;;;3.42;;
42144;SDS011;27813;43.516;11.890;2023-06-22T10:08:21;6.50;;;3.00;;
42144;SDS011;27813;43.516;11.890;2023-06-22T10:12:27;3.67;;;2.58;;
42144;SDS011;27813;43.516;11.890;2023-06-22T10:16:31;7.35;;;3.17;;
42144;SDS011;27813;43.516;11.890;2023-06-22T10:20:36;4.53;;;2.72;;
42144;SDS011;27813;43.516;11.890;2023-06-22T10:24:40;4.93;;;2.80;;
42144;SDS011;27813;43.516;11.890;2023-06-22T10:28:48;5.22;;;3.25;;
42144;SDS011;27813;43.516;11.890;2023-06-22T10:33:10;5.90;;;3.08;;
42144;SDS011;27813;43.516;11.890;2023-06-22T10:37:15;5.78;;;2.90;;
42144;SDS011;27813;43.516;11.890;2023-06-22T10:41:19;3.75;;;3.13;;
42144;SDS011;27813;43.516;11.890;2023-06-22T10:45:23;3.22;;;2.67;;
42144;SDS011;27813;43.516;11.890;2023-06-22T10:49:27;4.70;;;2.67;;
42144;SDS011;27813;43.516;11.890;2023-06-22T10:53:31;3.75;;;2.47;;
42144;SDS011;27813;43.516;11.890;2023-06-22T10:57:36;5.22;;;2.55;;
42144;SDS011;27813;43.516;11.890;2023-06-22T11:01:42;3.35;;;2.67;;
42144;SDS011;27813;43.516;11.890;2023-06-22T11:05:46;8.15;;;2.75;;
42144;SDS011;27813;43.516;11.890;2023-06-22T11:09:51;5.15;;;2.72;;
42144;SDS011;27813;43.516;11.890;2023-06-22T11:13:55;3.72;;;2.90;;
42144;SDS011;27813;43.516;11.890;2023-06-22T11:17:59;5.43;;;2.70;;
42144;SDS011;27813;43.516;11.890;2023-06-22T11:22:03;5.13;;;2.92;;
42144;SDS011;27813;43.516;11.890;2023-06-22T11:26:07;5.60;;;3.00;;
42144;SDS011;27813;43.516;11.890;2023-06-22T11:30:11;3.97;;;2.78;;
42144;SDS011;27813;43.516;11.890;2023-06-22T11:34:16;5.50;;;2.83;;
42144;SDS011;27813;43.516;11.890;2023-06-22T11:38:20;7.35;;;2.75;;
42144;SDS011;27813;43.516;11.890;2023-06-22T11:42:26;3.92;;;2.58;;
42144;SDS011;27813;43.516;11.890;2023-06-22T11:46:32;6.20;;;2.83;;
42144;SDS011;27813;43.516;11.890;2023-06-22T11:50:36;5.90;;;3.10;;
42144;SDS011;27813;43.516;11.890;2023-06-22T11:54:40;6.47;;;3.00;;
42144;SDS011;27813;43.516;11.890;2023-06-22T11:58:45;4.85;;;2.80;;
42144;SDS011;27813;43.516;11.890;2023-06-22T12:02:51;6.10;;;3.50;;
42144;SDS011;27813;43.516;11.890;2023-06-22T12:06:55;6.15;;;3.40;;
42144;SDS011;27813;43.516;11.890;2023-06-22T12:11:00;3.67;;;2.90;;
42144;SDS011;27813;43.516;11.890;2023-06-22T12:15:05;6.55;;;2.88;;
42144;SDS011;27813;43.516;11.890;2023-06-22T12:19:11;4.65;;;3.03;;
42144;SDS011;27813;43.516;11.890;2023-06-22T12:23:15;4.07;;;2.97;;
42144;SDS011;27813;43.516;11.890;2023-06-22T12:27:19;4.90;;;2.97;;
42144;SDS011;27813;43.516;11.890;2023-06-22T12:31:23;3.33;;;2.22;;
42144;SDS011;27813;43.516;11.890;2023-06-22T12:35:28;3.67;;;2.60;;
42144;SDS011;27813;43.516;11.890;2023-06-22T12:39:32;5.75;;;3.40;;
42144;SDS011;27813;43.516;11.890;2023-06-22T12:43:38;5.30;;;3.03;;
42144;SDS011;27813;43.516;11.890;2023-06-22T12:47:42;8.82;;;3.30;;
42144;SDS011;27813;43.516;11.890;2023-06-22T12:51:47;8.05;;;2.13;;
42144;SDS011;27813;43.516;11.890;2023-06-22T12:55:51;6.43;;;2.22;;
42144;SDS011;27813;43.516;11.890;2023-06-22T12:59:55;5.45;;;2.13;;
42144;SDS011;27813;43.516;11.890;2023-06-22T13:04:00;5.90;;;3.08;;
42144;SDS011;27813;43.516;11.890;2023-06-22T13:08:04;4.78;;;2.30;;
42144;SDS011;27813;43.516;11.890;2023-06-22T13:12:08;8.25;;;3.25;;
42144;SDS011;27813;43.516;11.890;2023-06-22T13:16:13;9.38;;;2.28;;
42144;SDS011;27813;43.516;11.890;2023-06-22T13:20:17;3.80;;;2.50;;
42144;SDS011;27813;43.516;11.890;2023-06-22T13:24:22;5.78;;;2.22;;
42144;SDS011;27813;43.516;11.890;2023-06-22T13:28:26;4.63;;;2.20;;
42144;SDS011;27813;43.516;11.890;2023-06-22T13:32:32;7.07;;;2.30;;
42144;SDS011;27813;43.516;11.890;2023-06-22T13:36:36;5.30;;;2.60;;
42144;SDS011;27813;43.516;11.890;2023-06-22T13:40:40;4.53;;;2.42;;
42144;SDS011;27813;43.516;11.890;2023-06-22T13:44:45;5.15;;;2.63;;
42144;SDS011;27813;43.516;11.890;2023-06-22T13:48:49;6.70;;;2.78;;
42144;SDS011;27813;43.516;11.890;2023-06-22T13:52:58;6.93;;;3.05;;
42144;SDS011;27813;43.516;11.890;2023-06-22T13:57:02;8.65;;;3.88;;
42144;SDS011;27813;43.516;11.890;2023-06-22T14:01:06;4.22;;;2.67;;
42144;SDS011;27813;43.516;11.890;2023-06-22T14:05:19;4.97;;;2.53;;
42144;SDS011;27813;43.516;11.890;2023-06-22T14:09:23;5.57;;;2.78;;
42144;SDS011;27813;43.516;11.890;2023-06-22T14:13:27;7.50;;;2.15;;
42144;SDS011;27813;43.516;11.890;2023-06-22T14:17:32;4.57;;;2.35;;
42144;SDS011;27813;43.516;11.890;2023-06-22T14:21:36;7.25;;;2.55;;
42144;SDS011;27813;43.516;11.890;2023-06-22T14:25:40;6.63;;;2.05;;
42144;SDS011;27813;43.516;11.890;2023-06-22T14:29:44;5.85;;;2.72;;
42144;SDS011;27813;43.516;11.890;2023-06-22T14:33:49;4.15;;;2.22;;
42144;SDS011;27813;43.516;11.890;2023-06-22T14:37:53;3.80;;;2.45;;
42144;SDS011;27813;43.516;11.890;2023-06-22T14:41:57;5.70;;;2.47;;
42144;SDS011;27813;43.516;11.890;2023-06-22T14:46:06;4.45;;;2.00;;
42144;SDS011;27813;43.516;11.890;2023-06-22T14:50:34;4.35;;;2.00;;
42144;SDS011;27813;43.516;11.890;2023-06-22T14:54:44;5.57;;;2.28;;
42144;SDS011;27813;43.516;11.890;2023-06-22T15:03:56;3.55;;;1.88;;
42144;SDS011;27813;43.516;11.890;2023-06-22T15:08:04;5.70;;;2.38;;
42144;SDS011;27813;43.516;11.890;2023-06-22T15:12:13;4.47;;;2.38;;
42144;SDS011;27813;43.516;11.890;2023-06-22T15:16:26;3.35;;;2.03;;
42144;SDS011;27813;43.516;11.890;2023-06-22T15:20:30;4.80;;;2.10;;
42144;SDS011;27813;43.516;11.890;2023-06-22T15:24:35;5.78;;;2.22;;
42144;SDS011;27813;43.516;11.890;2023-06-22T15:28:41;9.07;;;2.45;;
42144;SDS011;27813;43.516;11.890;2023-06-22T15:32:46;5.20;;;2.60;;
42144;SDS011;27813;43.516;11.890;2023-06-22T15:36:52;8.32;;;2.70;;
42144;SDS011;27813;43.516;11.890;2023-06-22T15:40:57;5.72;;;2.17;;
42144;SDS011;27813;43.516;11.890;2023-06-22T15:45:05;2.92;;;2.20;;
42144;SDS011;27813;43.516;11.890;2023-06-22T15:49:10;6.75;;;2.47;;
42144;SDS011;27813;43.516;11.890;2023-06-22T15:53:14;5.82;;;2.15;;
42144;SDS011;27813;43.516;11.890;2023-06-22T15:57:19;7.38;;;2.35;;
42144;SDS011;27813;43.516;11.890;2023-06-22T16:01:32;6.68;;;2.42;;
42144;SDS011;27813;43.516;11.890;2023-06-22T16:05:41;5.05;;;2.20;;
42144;SDS011;27813;43.516;11.890;2023-06-22T16:09:46;9.07;;;2.45;;
42144;SDS011;27813;43.516;11.890;2023-06-22T16:13:51;7.32;;;2.33;;
42144;SDS011;27813;43.516;11.890;2023-06-22T16:17:55;9.43;;;3.90;;
42144;SDS011;27813;43.516;11.890;2023-06-22T16:22:00;6.03;;;3.03;;
42144;SDS011;27813;43.516;11.890;2023-06-22T16:26:04;6.68;;;2.53;;
42144;SDS011;27813;43.516;11.890;2023-06-22T16:30:09;9.82;;;2.63;;
42144;SDS011;27813;43.516;11.890;2023-06-22T16:34:15;13.60;;;2.95;;
42144;SDS011;27813;43.516;11.890;2023-06-22T16:38:20;5.47;;;2.65;;
42144;SDS011;27813;43.516;11.890;2023-06-22T16:42:29;4.93;;;2.25;;
42144;SDS011;27813;43.516;11.890;2023-06-22T16:46:34;5.25;;;2.50;;
42144;SDS011;27813;43.516;11.890;2023-06-22T16:50:38;9.27;;;5.10;;
42144;SDS011;27813;43.516;11.890;2023-06-22T16:54:43;5.47;;;3.60;;
42144;SDS011;27813;43.516;11.890;2023-06-22T16:59:04;7.00;;;2.85;;
42144;SDS011;27813;43.516;11.890;2023-06-22T17:03:11;8.00;;;3.17;;
42144;SDS011;27813;43.516;11.890;2023-06-22T17:07:26;5.13;;;2.88;;
42144;SDS011;27813;43.516;11.890;2023-06-22T17:11:34;6.63;;;2.78;;
42144;SDS011;27813;43.516;11.890;2023-06-22T17:15:38;8.18;;;3.45;;
42144;SDS011;27813;43.516;11.890;2023-06-22T17:19:45;7.32;;;2.78;;
42144;SDS011;27813;43.516;11.890;2023-06-22T17:23:51;5.88;;;2.53;;
42144;SDS011;27813;43.516;11.890;2023-06-22T17:28:00;7.32;;;2.72;;
42144;SDS011;27813;43.516;11.890;2023-06-22T17:32:08;4.63;;;3.17;;
42144;SDS011;27813;43.516;11.890;2023-06-22T17:36:14;5.25;;;2.05;;
42144;SDS011;27813;43.516;11.890;2023-06-22T17:40:27;7.05;;;2.50;;
42144;SDS011;27813;43.516;11.890;2023-06-22T17:45:15;11.55;;;3.13;;
42144;SDS011;27813;43.516;11.890;2023-06-22T17:49:30;4.93;;;2.60;;
42144;SDS011;27813;43.516;11.890;2023-06-22T17:53:56;5.13;;;2.30;;
42144;SDS011;27813;43.516;11.890;2023-06-22T17:58:30;5.85;;;2.17;;
42144;SDS011;27813;43.516;11.890;2023-06-22T18:02:49;5.15;;;2.22;;
42144;SDS011;27813;43.516;11.890;2023-06-22T18:07:11;6.78;;;2.28;;
42144;SDS011;27813;43.516;11.890;2023-06-22T18:11:35;7.07;;;2.40;;
42144;SDS011;27813;43.516;11.890;2023-06-22T18:15:53;8.20;;;2.45;;
42144;SDS011;27813;43.516;11.890;2023-06-22T18:20:08;7.25;;;2.97;;
42144;SDS011;27813;43.516;11.890;2023-06-22T18:24:23;7.22;;;2.70;;
42144;SDS011;27813;43.516;11.890;2023-06-22T18:28:29;8.07;;;2.80;;
42144;SDS011;27813;43.516;11.890;2023-06-22T18:32:57;7.07;;;2.58;;
42144;SDS011;27813;43.516;11.890;2023-06-22T18:37:13;9.07;;;2.65;;
42144;SDS011;27813;43.516;11.890;2023-06-22T18:41:22;4.95;;;2.30;;
42144;SDS011;27813;43.516;11.890;2023-06-22T18:45:29;4.03;;;2.28;;
42144;SDS011;27813;43.516;11.890;2023-06-22T18:53:49;7.50;;;2.35;;
42144;SDS011;27813;43.516;11.890;2023-06-22T18:58:15;6.90;;;3.60;;
42144;SDS011;27813;43.516;11.890;2023-06-22T19:06:56;6.20;;;2.30;;
42144;SDS011;27813;43.516;11.890;2023-06-22T19:11:10;8.25;;;3.30;;
42144;SDS011;27813;43.516;11.890;2023-06-22T19:15:15;6.32;;;2.20;;
42144;SDS011;27813;43.516;11.890;2023-06-22T19:19:21;5.00;;;2.67;;
42144;SDS011;27813;43.516;11.890;2023-06-22T19:27:33;5.95;;;2.63;;
42144;SDS011;27813;43.516;11.890;2023-06-22T19:31:38;5.95;;;2.35;;
42144;SDS011;27813;43.516;11.890;2023-06-22T19:35:49;7.05;;;2.65;;
42144;SDS011;27813;43.516;11.890;2023-06-22T19:39:56;5.63;;;2.78;;
42144;SDS011;27813;43.516;11.890;2023-06-22T19:44:01;4.68;;;2.72;;
42144;SDS011;27813;43.516;11.890;2023-06-22T19:48:08;6.10;;;2.40;;
42144;SDS011;27813;43.516;11.890;2023-06-22T19:52:12;5.05;;;2.33;;
42144;SDS011;27813;43.516;11.890;2023-06-22T19:56:23;4.60;;;2.42;;
42144;SDS011;27813;43.516;11.890;2023-06-22T20:00:38;6.75;;;2.47;;
42144;SDS011;27813;43.516;11.890;2023-06-22T20:04:43;5.38;;;2.25;;
42144;SDS011;27813;43.516;11.890;2023-06-22T20:08:49;4.15;;;2.10;;
42144;SDS011;27813;43.516;11.890;2023-06-22T20:17:15;4.13;;;2.03;;
42144;SDS011;27813;43.516;11.890;2023-06-22T20:21:20;3.80;;;2.38;;
42144;SDS011;27813;43.516;11.890;2023-06-22T20:25:25;4.18;;;2.30;;
42144;SDS011;27813;43.516;11.890;2023-06-22T20:29:35;5.03;;;2.60;;
42144;SDS011;27813;43.516;11.890;2023-06-22T20:33:42;4.20;;;2.70;;
42144;SDS011;27813;43.516;11.890;2023-06-22T20:37:47;5.38;;;2.60;;
42144;SDS011;27813;43.516;11.890;2023-06-22T20:41:52;4.00;;;2.25;;
42144;SDS011;27813;43.516;11.890;2023-06-22T20:45:57;5.80;;;2.33;;
42144;SDS011;27813;43.516;11.890;2023-06-22T20:50:05;4.82;;;2.17;;
42144;SDS011;27813;43.516;11.890;2023-06-22T20:54:09;5.55;;;2.28;;
42144;SDS011;27813;43.516;11.890;2023-06-22T20:58:15;3.80;;;2.28;;
42144;SDS011;27813;43.516;11.890;2023-06-22T21:02:22;3.67;;;2.65;;
42144;SDS011;27813;43.516;11.890;2023-06-22T21:06:26;2.80;;;1.90;;
42144;SDS011;27813;43.516;11.890;2023-06-22T21:10:30;6.45;;;2.20;;
42144;SDS011;27813;43.516;11.890;2023-06-22T21:14:34;3.38;;;2.10;;
42144;SDS011;27813;43.516;11.890;2023-06-22T21:18:38;3.58;;;2.05;;
42144;SDS011;27813;43.516;11.890;2023-06-22T21:22:52;3.47;;;2.22;;
42144;SDS011;27813;43.516;11.890;2023-06-22T21:26:56;4.43;;;2.20;;
42144;SDS011;27813;43.516;11.890;2023-06-22T21:31:05;4.55;;;2.50;;
42144;SDS011;27813;43.516;11.890;2023-06-22T21:35:10;5.03;;;2.50;;
42144;SDS011;27813;43.516;11.890;2023-06-22T21:39:21;3.72;;;2.50;;
42144;SDS011;27813;43.516;11.890;2023-06-22T21:43:27;5.03;;;2.35;;
42144;SDS011;27813;43.516;11.890;2023-06-22T21:47:33;4.72;;;2.33;;
42144;SDS011;27813;43.516;11.890;2023-06-22T21:51:48;3.70;;;2.38;;
42144;SDS011;27813;43.516;11.890;2023-06-22T21:56:02;5.35;;;2.42;;
42144;SDS011;27813;43.516;11.890;2023-06-22T22:00:09;3.50;;;2.20;;
42144;SDS011;27813;43.516;11.890;2023-06-22T22:04:19;6.95;;;3.00;;
42144;SDS011;27813;43.516;11.890;2023-06-22T22:08:36;5.32;;;2.38;;
42144;SDS011;27813;43.516;11.890;2023-06-22T22:12:45;4.40;;;2.30;;
42144;SDS011;27813;43.516;11.890;2023-06-22T22:17:01;2.95;;;2.03;;
42144;SDS011;27813;43.516;11.890;2023-06-22T22:21:29;4.70;;;2.25;;
42144;SDS011;27813;43.516;11.890;2023-06-22T22:25:56;4.60;;;2.33;;
42144;SDS011;27813;43.516;11.890;2023-06-22T22:30:00;8.65;;;2.65;;
42144;SDS011;27813;43.516;11.890;2023-06-22T22:34:06;4.80;;;2.20;;
42144;SDS011;27813;43.516;11.890;2023-06-22T22:38:14;3.28;;;2.17;;
42144;SDS011;27813;43.516;11.890;2023-06-22T22:42:23;3.78;;;2.40;;
42144;SDS011;27813;43.516;11.890;2023-06-22T22:46:27;4.15;;;2.40;;
42144;SDS011;27813;43.516;11.890;2023-06-22T22:50:32;3.33;;;2.30;;
42144;SDS011;27813;43.516;11.890;2023-06-22T22:54:39;3.67;;;2.25;;
42144;SDS011;27813;43.516;11.890;2023-06-22T22:58:49;5.13;;;2.05;;
42144;SDS011;27813;43.516;11.890;2023-06-22T23:02:53;2.83;;;1.85;;
42144;SDS011;27813;43.516;11.890;2023-06-22T23:06:57;4.10;;;2.42;;
42144;SDS011;27813;43.516;11.890;2023-06-22T23:11:04;3.35;;;2.15;;
42144;SDS011;27813;43.516;11.890;2023-06-22T23:15:09;2.72;;;2.15;;
42144;SDS011;27813;43.516;11.890;2023-06-22T23:19:14;3.17;;;2.08;;
42144;SDS011;27813;43.516;11.890;2023-06-22T23:23:23;3.28;;;2.35;;
42144;SDS011;27813;43.516;11.890;2023-06-22T23:27:27;3.97;;;2.30;;
